sensor_id;sensor_type;location;lat;lon;timestamp;P1;durP1;ratioP1;P2;durP2;ratioP2
10489;SDS011;35569;48.402;10.670;2023-03-20T00:00:24;0.60;;;0.60;;
10489;SDS011;35569;48.402;10.670;2023-03-20T00:01:00;0.53;;;0.53;;
10489;SDS011;35569;48.402;10.670;2023-03-20T00:01:32;0.40;;;0.40;;
10489;SDS011;35569;48.402;10.670;2023-03-20T00:02:09;0.57;;;0.57;;
10489;SDS011;35569;48.402;10.670;2023-03-20T00:02:42;0.50;;;0.50;;
10489;SDS011;35569;48.402;10.670;2023-03-20T00:03:15;0.50;;;0.50;;
10489;SDS011;35569;48.402;10.670;2023-03-20T00:03:50;0.60;;;0.60;;
10489;SDS011;35569;48.402;10.670;2023-03-20T00:04:22;0.67;;;0.67;;
10489;SDS011;35569;48.402;10.670;2023-03-20T00:04:56;0.50;;;0.50;;
10489;SDS011;35569;48.402;10.670;2023-03-20T00:05:29;0.70;;;0.70;;
10489;SDS011;35569;48.402;10.670;2023-03-20T00:06:07;0.50;;;0.50;;
10489;SDS011;35569;48.402;10.670;2023-03-20T00:06:44;0.50;;;0.50;;
10489;SDS011;35569;48.402;10.670;2023-03-20T00:07:17;0.50;;;0.50;;
10489;SDS011;35569;48.402;10.670;2023-03-20T00:07:52;0.60;;;0.60;;
10489;SDS011;35569;48.402;10.670;2023-03-20T00:08:24;1.40;;;0.60;;
10489;SDS011;35569;48.402;10.670;2023-03-20T00:09:00;0.60;;;0.60;;
10489;SDS011;35569;48.402;10.670;2023-03-20T00:09:38;0.60;;;0.60;;
10489;SDS011;35569;48.402;10.670;2023-03-20T00:10:13;0.57;;;0.57;;
10489;SDS011;35569;48.402;10.670;2023-03-20T00:10:46;0.70;;;0.70;;
10489;SDS011;35569;48.402;10.670;2023-03-20T00:11:24;0.60;;;0.60;;
10489;SDS011;35569;48.402;10.670;2023-03-20T00:11:59;0.70;;;0.50;;
10489;SDS011;35569;48.402;10.670;2023-03-20T00:12:31;0.70;;;0.70;;
10489;SDS011;35569;48.402;10.670;2023-03-20T00:13:07;0.40;;;0.40;;
10489;SDS011;35569;48.402;10.670;2023-03-20T00:13:43;0.60;;;0.60;;
10489;SDS011;35569;48.402;10.670;2023-03-20T00:14:16;0.63;;;0.63;;
10489;SDS011;35569;48.402;10.670;2023-03-20T00:14:53;0.60;;;0.60;;
10489;SDS011;35569;48.402;10.670;2023-03-20T00:15:29;0.67;;;0.67;;
10489;SDS011;35569;48.402;10.670;2023-03-20T00:16:02;0.60;;;0.60;;
10489;SDS011;35569;48.402;10.670;2023-03-20T00:16:38;0.60;;;0.60;;
10489;SDS011;35569;48.402;10.670;2023-03-20T00:17:12;0.60;;;0.60;;
10489;SDS011;35569;48.402;10.670;2023-03-20T00:17:48;0.57;;;0.57;;
10489;SDS011;35569;48.402;10.670;2023-03-20T00:18:24;0.50;;;0.50;;
10489;SDS011;35569;48.402;10.670;2023-03-20T00:18:57;0.50;;;0.50;;
10489;SDS011;35569;48.402;10.670;2023-03-20T00:19:29;0.50;;;0.50;;
10489;SDS011;35569;48.402;10.670;2023-03-20T00:20:04;0.50;;;0.50;;
10489;SDS011;35569;48.402;10.670;2023-03-20T00:20:37;0.60;;;0.60;;
10489;SDS011;35569;48.402;10.670;2023-03-20T00:21:14;0.60;;;0.60;;
10489;SDS011;35569;48.402;10.670;2023-03-20T00:21:48;0.70;;;0.70;;
10489;SDS011;35569;48.402;10.670;2023-03-20T00:22:21;0.50;;;0.50;;
10489;SDS011;35569;48.402;10.670;2023-03-20T00:22:56;0.57;;;0.57;;
10489;SDS011;35569;48.402;10.670;2023-03-20T00:23:28;0.50;;;0.50;;
10489;SDS011;35569;48.402;10.670;2023-03-20T00:24:00;0.70;;;0.70;;
10489;SDS011;35569;48.402;10.670;2023-03-20T00:24:35;0.50;;;0.50;;
10489;SDS011;35569;48.402;10.670;2023-03-20T00:25:08;0.60;;;0.50;;
10489;SDS011;35569;48.402;10.670;2023-03-20T00:25:47;0.83;;;0.70;;
10489;SDS011;35569;48.402;10.670;2023-03-20T00:26:22;0.60;;;0.60;;
10489;SDS011;35569;48.402;10.670;2023-03-20T00:26:57;0.60;;;0.40;;
10489;SDS011;35569;48.402;10.670;2023-03-20T00:27:30;0.50;;;0.50;;
10489;SDS011;35569;48.402;10.670;2023-03-20T00:28:11;0.57;;;0.57;;
10489;SDS011;35569;48.402;10.670;2023-03-20T00:29:00;0.50;;;0.50;;
10489;SDS011;35569;48.402;10.670;2023-03-20T00:29:35;0.53;;;0.53;;
10489;SDS011;35569;48.402;10.670;2023-03-20T00:30:59;0.50;;;0.50;;
10489;SDS011;35569;48.402;10.670;2023-03-20T00:31:32;0.50;;;0.50;;
10489;SDS011;35569;48.402;10.670;2023-03-20T00:32:07;0.60;;;0.60;;
10489;SDS011;35569;48.402;10.670;2023-03-20T00:32:44;0.50;;;0.50;;
10489;SDS011;35569;48.402;10.670;2023-03-20T00:33:16;0.50;;;0.50;;
10489;SDS011;35569;48.402;10.670;2023-03-20T00:33:49;0.60;;;0.60;;
10489;SDS011;35569;48.402;10.670;2023-03-20T00:34:25;0.43;;;0.43;;
10489;SDS011;35569;48.402;10.670;2023-03-20T00:34:59;0.50;;;0.50;;
10489;SDS011;35569;48.402;10.670;2023-03-20T00:35:32;0.50;;;0.50;;
10489;SDS011;35569;48.402;10.670;2023-03-20T00:36:07;0.50;;;0.50;;
10489;SDS011;35569;48.402;10.670;2023-03-20T00:36:40;0.50;;;0.50;;
10489;SDS011;35569;48.402;10.670;2023-03-20T00:37:13;0.40;;;0.40;;
10489;SDS011;35569;48.402;10.670;2023-03-20T00:37:49;0.40;;;0.40;;
10489;SDS011;35569;48.402;10.670;2023-03-20T00:38:22;0.50;;;0.50;;
10489;SDS011;35569;48.402;10.670;2023-03-20T00:38:54;0.50;;;0.50;;
10489;SDS011;35569;48.402;10.670;2023-03-20T00:39:31;0.60;;;0.50;;
10489;SDS011;35569;48.402;10.670;2023-03-20T00:40:06;0.40;;;0.40;;
10489;SDS011;35569;48.402;10.670;2023-03-20T00:40:42;0.93;;;0.50;;
10489;SDS011;35569;48.402;10.670;2023-03-20T00:41:21;0.50;;;0.50;;
10489;SDS011;35569;48.402;10.670;2023-03-20T00:41:55;1.37;;;0.47;;
10489;SDS011;35569;48.402;10.670;2023-03-20T00:42:28;0.50;;;0.50;;
10489;SDS011;35569;48.402;10.670;2023-03-20T00:43:03;0.50;;;0.50;;
10489;SDS011;35569;48.402;10.670;2023-03-20T00:43:35;0.50;;;0.50;;
10489;SDS011;35569;48.402;10.670;2023-03-20T00:44:12;0.50;;;0.50;;
10489;SDS011;35569;48.402;10.670;2023-03-20T00:44:53;0.50;;;0.50;;
10489;SDS011;35569;48.402;10.670;2023-03-20T00:45:30;0.50;;;0.50;;
10489;SDS011;35569;48.402;10.670;2023-03-20T00:46:06;0.50;;;0.50;;
10489;SDS011;35569;48.402;10.670;2023-03-20T00:46:40;0.50;;;0.50;;
10489;SDS011;35569;48.402;10.670;2023-03-20T00:47:14;0.50;;;0.50;;
10489;SDS011;35569;48.402;10.670;2023-03-20T00:47:51;0.60;;;0.60;;
10489;SDS011;35569;48.402;10.670;2023-03-20T00:48:23;0.80;;;0.50;;
10489;SDS011;35569;48.402;10.670;2023-03-20T00:48:56;0.70;;;0.70;;
10489;SDS011;35569;48.402;10.670;2023-03-20T00:49:32;0.70;;;0.70;;
10489;SDS011;35569;48.402;10.670;2023-03-20T00:50:06;0.60;;;0.60;;
10489;SDS011;35569;48.402;10.670;2023-03-20T00:50:44;0.50;;;0.50;;
10489;SDS011;35569;48.402;10.670;2023-03-20T00:51:20;0.53;;;0.53;;
10489;SDS011;35569;48.402;10.670;2023-03-20T00:51:52;0.60;;;0.60;;
10489;SDS011;35569;48.402;10.670;2023-03-20T00:52:25;0.60;;;0.60;;
10489;SDS011;35569;48.402;10.670;2023-03-20T00:53:00;0.80;;;0.50;;
10489;SDS011;35569;48.402;10.670;2023-03-20T00:53:32;0.60;;;0.60;;
10489;SDS011;35569;48.402;10.670;2023-03-20T00:54:08;0.60;;;0.60;;
10489;SDS011;35569;48.402;10.670;2023-03-20T00:54:46;0.50;;;0.50;;
10489;SDS011;35569;48.402;10.670;2023-03-20T00:55:19;0.87;;;0.87;;
10489;SDS011;35569;48.402;10.670;2023-03-20T00:55:56;0.60;;;0.60;;
10489;SDS011;35569;48.402;10.670;2023-03-20T00:56:32;0.60;;;0.60;;
10489;SDS011;35569;48.402;10.670;2023-03-20T00:57:07;0.80;;;0.80;;
10489;SDS011;35569;48.402;10.670;2023-03-20T00:57:43;0.67;;;0.67;;
10489;SDS011;35569;48.402;10.670;2023-03-20T00:58:19;0.70;;;0.70;;
10489;SDS011;35569;48.402;10.670;2023-03-20T00:58:52;0.50;;;0.50;;
10489;SDS011;35569;48.402;10.670;2023-03-20T00:59:25;0.60;;;0.60;;
10489;SDS011;35569;48.402;10.670;2023-03-20T01:00:00;0.77;;;0.77;;
10489;SDS011;35569;48.402;10.670;2023-03-20T01:00:38;0.83;;;0.83;;
10489;SDS011;35569;48.402;10.670;2023-03-20T01:01:11;0.53;;;0.53;;
10489;SDS011;35569;48.402;10.670;2023-03-20T01:01:44;0.60;;;0.60;;
10489;SDS011;35569;48.402;10.670;2023-03-20T01:02:20;0.50;;;0.50;;
10489;SDS011;35569;48.402;10.670;2023-03-20T01:02:53;0.50;;;0.50;;
10489;SDS011;35569;48.402;10.670;2023-03-20T01:03:27;0.50;;;0.50;;
10489;SDS011;35569;48.402;10.670;2023-03-20T01:04:04;0.50;;;0.50;;
10489;SDS011;35569;48.402;10.670;2023-03-20T01:04:40;0.60;;;0.60;;
10489;SDS011;35569;48.402;10.670;2023-03-20T01:05:13;0.57;;;0.57;;
10489;SDS011;35569;48.402;10.670;2023-03-20T01:05:49;0.50;;;0.50;;
10489;SDS011;35569;48.402;10.670;2023-03-20T01:06:22;0.60;;;0.60;;
10489;SDS011;35569;48.402;10.670;2023-03-20T01:06:54;0.50;;;0.50;;
10489;SDS011;35569;48.402;10.670;2023-03-20T01:07:29;0.60;;;0.60;;
10489;SDS011;35569;48.402;10.670;2023-03-20T01:08:01;0.60;;;0.60;;
10489;SDS011;35569;48.402;10.670;2023-03-20T01:08:34;0.60;;;0.60;;
10489;SDS011;35569;48.402;10.670;2023-03-20T01:09:08;0.40;;;0.40;;
10489;SDS011;35569;48.402;10.670;2023-03-20T01:09:41;0.60;;;0.60;;
10489;SDS011;35569;48.402;10.670;2023-03-20T01:10:14;0.50;;;0.50;;
10489;SDS011;35569;48.402;10.670;2023-03-20T01:10:49;0.50;;;0.50;;
10489;SDS011;35569;48.402;10.670;2023-03-20T01:11:28;0.60;;;0.60;;
10489;SDS011;35569;48.402;10.670;2023-03-20T01:12:01;0.57;;;0.57;;
10489;SDS011;35569;48.402;10.670;2023-03-20T01:12:38;0.60;;;0.60;;
10489;SDS011;35569;48.402;10.670;2023-03-20T01:13:14;0.50;;;0.50;;
10489;SDS011;35569;48.402;10.670;2023-03-20T01:13:50;0.50;;;0.50;;
10489;SDS011;35569;48.402;10.670;2023-03-20T01:14:25;0.50;;;0.50;;
10489;SDS011;35569;48.402;10.670;2023-03-20T01:14:57;0.60;;;0.60;;
10489;SDS011;35569;48.402;10.670;2023-03-20T01:15:31;0.70;;;0.70;;
10489;SDS011;35569;48.402;10.670;2023-03-20T01:16:11;0.87;;;0.60;;
10489;SDS011;35569;48.402;10.670;2023-03-20T01:16:51;0.50;;;0.50;;
10489;SDS011;35569;48.402;10.670;2023-03-20T01:17:27;0.40;;;0.40;;
10489;SDS011;35569;48.402;10.670;2023-03-20T01:17:59;0.50;;;0.50;;
10489;SDS011;35569;48.402;10.670;2023-03-20T01:18:31;0.60;;;0.60;;
10489;SDS011;35569;48.402;10.670;2023-03-20T01:19:09;0.53;;;0.53;;
10489;SDS011;35569;48.402;10.670;2023-03-20T01:19:42;0.50;;;0.50;;
10489;SDS011;35569;48.402;10.670;2023-03-20T01:20:16;2.10;;;0.60;;
10489;SDS011;35569;48.402;10.670;2023-03-20T01:20:50;0.60;;;0.60;;
10489;SDS011;35569;48.402;10.670;2023-03-20T01:21:25;0.50;;;0.50;;
10489;SDS011;35569;48.402;10.670;2023-03-20T01:21:58;0.50;;;0.50;;
10489;SDS011;35569;48.402;10.670;2023-03-20T01:22:30;0.40;;;0.40;;
10489;SDS011;35569;48.402;10.670;2023-03-20T01:23:02;0.50;;;0.50;;
10489;SDS011;35569;48.402;10.670;2023-03-20T01:23:37;0.60;;;0.60;;
10489;SDS011;35569;48.402;10.670;2023-03-20T01:24:09;0.50;;;0.50;;
10489;SDS011;35569;48.402;10.670;2023-03-20T01:24:41;0.70;;;0.70;;
10489;SDS011;35569;48.402;10.670;2023-03-20T01:25:16;0.50;;;0.50;;
10489;SDS011;35569;48.402;10.670;2023-03-20T01:25:49;0.60;;;0.60;;
10489;SDS011;35569;48.402;10.670;2023-03-20T01:26:29;0.50;;;0.50;;
10489;SDS011;35569;48.402;10.670;2023-03-20T01:27:07;0.50;;;0.50;;
10489;SDS011;35569;48.402;10.670;2023-03-20T01:27:44;0.60;;;0.60;;
10489;SDS011;35569;48.402;10.670;2023-03-20T01:28:22;0.50;;;0.50;;
10489;SDS011;35569;48.402;10.670;2023-03-20T01:28:54;0.50;;;0.50;;
10489;SDS011;35569;48.402;10.670;2023-03-20T01:29:27;0.50;;;0.50;;
10489;SDS011;35569;48.402;10.670;2023-03-20T01:30:08;0.53;;;0.53;;
10489;SDS011;35569;48.402;10.670;2023-03-20T01:30:47;0.50;;;0.50;;
10489;SDS011;35569;48.402;10.670;2023-03-20T01:31:19;2.10;;;0.50;;
10489;SDS011;35569;48.402;10.670;2023-03-20T01:31:54;0.77;;;0.77;;
10489;SDS011;35569;48.402;10.670;2023-03-20T01:32:29;0.50;;;0.50;;
10489;SDS011;35569;48.402;10.670;2023-03-20T01:33:05;0.80;;;0.80;;
10489;SDS011;35569;48.402;10.670;2023-03-20T01:33:40;0.50;;;0.50;;
10489;SDS011;35569;48.402;10.670;2023-03-20T01:34:12;0.57;;;0.57;;
10489;SDS011;35569;48.402;10.670;2023-03-20T01:34:47;0.60;;;0.60;;
10489;SDS011;35569;48.402;10.670;2023-03-20T01:35:23;0.50;;;0.50;;
10489;SDS011;35569;48.402;10.670;2023-03-20T01:35:57;1.13;;;0.60;;
10489;SDS011;35569;48.402;10.670;2023-03-20T01:36:30;0.70;;;0.70;;
10489;SDS011;35569;48.402;10.670;2023-03-20T01:37:08;0.63;;;0.53;;
10489;SDS011;35569;48.402;10.670;2023-03-20T01:37:43;0.50;;;0.50;;
10489;SDS011;35569;48.402;10.670;2023-03-20T01:38:17;0.60;;;0.60;;
10489;SDS011;35569;48.402;10.670;2023-03-20T01:38:54;0.50;;;0.50;;
10489;SDS011;35569;48.402;10.670;2023-03-20T01:39:30;0.60;;;0.60;;
10489;SDS011;35569;48.402;10.670;2023-03-20T01:40:07;1.00;;;0.60;;
10489;SDS011;35569;48.402;10.670;2023-03-20T01:41:00;0.50;;;0.50;;
10489;SDS011;35569;48.402;10.670;2023-03-20T01:41:38;0.57;;;0.57;;
10489;SDS011;35569;48.402;10.670;2023-03-20T01:42:12;0.47;;;0.47;;
10489;SDS011;35569;48.402;10.670;2023-03-20T01:42:48;0.50;;;0.50;;
10489;SDS011;35569;48.402;10.670;2023-03-20T01:43:22;0.53;;;0.53;;
10489;SDS011;35569;48.402;10.670;2023-03-20T01:43:55;0.50;;;0.50;;
10489;SDS011;35569;48.402;10.670;2023-03-20T01:44:31;0.57;;;0.57;;
10489;SDS011;35569;48.402;10.670;2023-03-20T01:45:09;0.60;;;0.60;;
10489;SDS011;35569;48.402;10.670;2023-03-20T01:45:51;0.50;;;0.50;;
10489;SDS011;35569;48.402;10.670;2023-03-20T01:46:30;1.27;;;0.60;;
10489;SDS011;35569;48.402;10.670;2023-03-20T01:47:15;0.60;;;0.60;;
10489;SDS011;35569;48.402;10.670;2023-03-20T01:47:49;0.50;;;0.50;;
10489;SDS011;35569;48.402;10.670;2023-03-20T01:48:26;0.50;;;0.50;;
10489;SDS011;35569;48.402;10.670;2023-03-20T01:49:08;0.60;;;0.60;;
10489;SDS011;35569;48.402;10.670;2023-03-20T01:50:20;0.60;;;0.53;;
10489;SDS011;35569;48.402;10.670;2023-03-20T01:51:21;0.53;;;0.53;;
10489;SDS011;35569;48.402;10.670;2023-03-20T01:52:00;0.50;;;0.50;;
10489;SDS011;35569;48.402;10.670;2023-03-20T01:52:35;0.50;;;0.50;;
10489;SDS011;35569;48.402;10.670;2023-03-20T01:53:08;0.70;;;0.70;;
10489;SDS011;35569;48.402;10.670;2023-03-20T01:53:51;0.50;;;0.50;;
10489;SDS011;35569;48.402;10.670;2023-03-20T01:54:26;0.60;;;0.60;;
10489;SDS011;35569;48.402;10.670;2023-03-20T01:55:07;0.50;;;0.50;;
10489;SDS011;35569;48.402;10.670;2023-03-20T01:55:43;0.60;;;0.60;;
10489;SDS011;35569;48.402;10.670;2023-03-20T01:56:19;0.60;;;0.60;;
10489;SDS011;35569;48.402;10.670;2023-03-20T01:56:58;0.50;;;0.50;;
10489;SDS011;35569;48.402;10.670;2023-03-20T01:57:33;0.60;;;0.60;;
10489;SDS011;35569;48.402;10.670;2023-03-20T01:58:06;0.60;;;0.60;;
10489;SDS011;35569;48.402;10.670;2023-03-20T01:58:43;0.53;;;0.53;;
10489;SDS011;35569;48.402;10.670;2023-03-20T01:59:19;0.60;;;0.60;;
10489;SDS011;35569;48.402;10.670;2023-03-20T01:59:55;0.60;;;0.60;;
10489;SDS011;35569;48.402;10.670;2023-03-20T02:00:45;0.50;;;0.50;;
10489;SDS011;35569;48.402;10.670;2023-03-20T02:01:21;0.60;;;0.60;;
10489;SDS011;35569;48.402;10.670;2023-03-20T02:01:58;0.50;;;0.50;;
10489;SDS011;35569;48.402;10.670;2023-03-20T02:02:31;0.67;;;0.67;;
10489;SDS011;35569;48.402;10.670;2023-03-20T02:03:05;0.50;;;0.50;;
10489;SDS011;35569;48.402;10.670;2023-03-20T02:04:07;0.60;;;0.60;;
10489;SDS011;35569;48.402;10.670;2023-03-20T02:04:53;0.40;;;0.40;;
10489;SDS011;35569;48.402;10.670;2023-03-20T02:05:29;0.50;;;0.50;;
10489;SDS011;35569;48.402;10.670;2023-03-20T02:06:05;0.50;;;0.50;;
10489;SDS011;35569;48.402;10.670;2023-03-20T02:06:56;0.40;;;0.40;;
10489;SDS011;35569;48.402;10.670;2023-03-20T02:07:43;0.50;;;0.50;;
10489;SDS011;35569;48.402;10.670;2023-03-20T02:08:21;0.60;;;0.60;;
10489;SDS011;35569;48.402;10.670;2023-03-20T02:08:55;0.50;;;0.50;;
10489;SDS011;35569;48.402;10.670;2023-03-20T02:09:34;0.40;;;0.40;;
10489;SDS011;35569;48.402;10.670;2023-03-20T02:10:12;0.50;;;0.50;;
10489;SDS011;35569;48.402;10.670;2023-03-20T02:10:56;0.57;;;0.57;;
10489;SDS011;35569;48.402;10.670;2023-03-20T02:11:34;0.50;;;0.50;;
10489;SDS011;35569;48.402;10.670;2023-03-20T02:12:10;0.60;;;0.50;;
10489;SDS011;35569;48.402;10.670;2023-03-20T02:12:44;0.50;;;0.50;;
10489;SDS011;35569;48.402;10.670;2023-03-20T02:13:28;0.60;;;0.60;;
10489;SDS011;35569;48.402;10.670;2023-03-20T02:14:02;0.50;;;0.50;;
10489;SDS011;35569;48.402;10.670;2023-03-20T02:14:45;0.40;;;0.40;;
10489;SDS011;35569;48.402;10.670;2023-03-20T02:15:26;0.40;;;0.40;;
10489;SDS011;35569;48.402;10.670;2023-03-20T02:16:20;0.50;;;0.50;;
10489;SDS011;35569;48.402;10.670;2023-03-20T02:17:08;0.50;;;0.50;;
10489;SDS011;35569;48.402;10.670;2023-03-20T02:17:48;0.50;;;0.50;;
10489;SDS011;35569;48.402;10.670;2023-03-20T02:18:20;0.50;;;0.50;;
10489;SDS011;35569;48.402;10.670;2023-03-20T02:18:55;0.50;;;0.50;;
10489;SDS011;35569;48.402;10.670;2023-03-20T02:19:30;0.50;;;0.50;;
10489;SDS011;35569;48.402;10.670;2023-03-20T02:20:09;0.63;;;0.63;;
10489;SDS011;35569;48.402;10.670;2023-03-20T02:20:51;0.50;;;0.50;;
10489;SDS011;35569;48.402;10.670;2023-03-20T02:24:03;0.70;;;0.50;;
10489;SDS011;35569;48.402;10.670;2023-03-20T02:25:01;0.60;;;0.60;;
10489;SDS011;35569;48.402;10.670;2023-03-20T02:27:02;0.50;;;0.50;;
10489;SDS011;35569;48.402;10.670;2023-03-20T02:27:41;0.53;;;0.53;;
10489;SDS011;35569;48.402;10.670;2023-03-20T02:28:32;0.50;;;0.50;;
10489;SDS011;35569;48.402;10.670;2023-03-20T02:33:07;0.57;;;0.53;;
10489;SDS011;35569;48.402;10.670;2023-03-20T02:34:20;0.70;;;0.70;;
10489;SDS011;35569;48.402;10.670;2023-03-20T02:35:19;0.60;;;0.60;;
10489;SDS011;35569;48.402;10.670;2023-03-20T02:36:16;0.70;;;0.70;;
10489;SDS011;35569;48.402;10.670;2023-03-20T02:38:02;0.70;;;0.70;;
10489;SDS011;35569;48.402;10.670;2023-03-20T02:38:45;0.80;;;0.80;;
10489;SDS011;35569;48.402;10.670;2023-03-20T02:39:41;1.23;;;0.90;;
10489;SDS011;35569;48.402;10.670;2023-03-20T02:40:20;1.17;;;0.77;;
10489;SDS011;35569;48.402;10.670;2023-03-20T02:40:57;0.70;;;0.70;;
10489;SDS011;35569;48.402;10.670;2023-03-20T02:41:35;0.70;;;0.70;;
10489;SDS011;35569;48.402;10.670;2023-03-20T02:42:12;0.70;;;0.70;;
10489;SDS011;35569;48.402;10.670;2023-03-20T02:42:53;0.70;;;0.70;;
10489;SDS011;35569;48.402;10.670;2023-03-20T02:43:34;0.73;;;0.73;;
10489;SDS011;35569;48.402;10.670;2023-03-20T02:44:13;0.60;;;0.60;;
10489;SDS011;35569;48.402;10.670;2023-03-20T02:44:52;0.80;;;0.80;;
10489;SDS011;35569;48.402;10.670;2023-03-20T02:45:34;0.80;;;0.80;;
10489;SDS011;35569;48.402;10.670;2023-03-20T02:46:23;0.60;;;0.60;;
10489;SDS011;35569;48.402;10.670;2023-03-20T02:47:01;1.00;;;1.00;;
10489;SDS011;35569;48.402;10.670;2023-03-20T02:47:39;0.60;;;0.60;;
10489;SDS011;35569;48.402;10.670;2023-03-20T02:48:25;0.90;;;0.90;;
10489;SDS011;35569;48.402;10.670;2023-03-20T02:49:03;0.90;;;0.90;;
10489;SDS011;35569;48.402;10.670;2023-03-20T02:49:48;0.90;;;0.90;;
10489;SDS011;35569;48.402;10.670;2023-03-20T02:50:26;0.80;;;0.80;;
10489;SDS011;35569;48.402;10.670;2023-03-20T02:51:03;0.90;;;0.90;;
10489;SDS011;35569;48.402;10.670;2023-03-20T02:51:46;1.00;;;1.00;;
10489;SDS011;35569;48.402;10.670;2023-03-20T02:52:24;0.93;;;0.83;;
10489;SDS011;35569;48.402;10.670;2023-03-20T02:53:08;0.80;;;0.80;;
10489;SDS011;35569;48.402;10.670;2023-03-20T02:53:50;0.80;;;0.80;;
10489;SDS011;35569;48.402;10.670;2023-03-20T02:54:25;0.60;;;0.60;;
10489;SDS011;35569;48.402;10.670;2023-03-20T02:55:03;0.70;;;0.70;;
10489;SDS011;35569;48.402;10.670;2023-03-20T02:55:45;0.80;;;0.80;;
10489;SDS011;35569;48.402;10.670;2023-03-20T02:56:21;1.97;;;0.87;;
10489;SDS011;35569;48.402;10.670;2023-03-20T02:56:58;1.10;;;0.70;;
10489;SDS011;35569;48.402;10.670;2023-03-20T02:57:37;0.80;;;0.80;;
10489;SDS011;35569;48.402;10.670;2023-03-20T02:58:15;0.83;;;0.83;;
10489;SDS011;35569;48.402;10.670;2023-03-20T02:58:54;0.73;;;0.73;;
10489;SDS011;35569;48.402;10.670;2023-03-20T02:59:34;0.70;;;0.70;;
10489;SDS011;35569;48.402;10.670;2023-03-20T03:00:09;0.60;;;0.60;;
10489;SDS011;35569;48.402;10.670;2023-03-20T03:00:46;1.00;;;0.73;;
10489;SDS011;35569;48.402;10.670;2023-03-20T03:01:25;1.00;;;1.00;;
10489;SDS011;35569;48.402;10.670;2023-03-20T03:02:03;0.70;;;0.70;;
10489;SDS011;35569;48.402;10.670;2023-03-20T03:02:38;0.87;;;0.87;;
10489;SDS011;35569;48.402;10.670;2023-03-20T03:03:16;0.90;;;0.90;;
10489;SDS011;35569;48.402;10.670;2023-03-20T03:03:52;1.23;;;0.97;;
10489;SDS011;35569;48.402;10.670;2023-03-20T03:04:28;1.00;;;0.90;;
10489;SDS011;35569;48.402;10.670;2023-03-20T03:05:07;0.50;;;0.50;;
10489;SDS011;35569;48.402;10.670;2023-03-20T03:05:44;0.70;;;0.60;;
10489;SDS011;35569;48.402;10.670;2023-03-20T03:06:21;0.70;;;0.70;;
10489;SDS011;35569;48.402;10.670;2023-03-20T03:06:58;0.70;;;0.70;;
10489;SDS011;35569;48.402;10.670;2023-03-20T03:07:33;0.97;;;0.97;;
10489;SDS011;35569;48.402;10.670;2023-03-20T03:08:06;0.90;;;0.90;;
10489;SDS011;35569;48.402;10.670;2023-03-20T03:08:46;0.70;;;0.70;;
10489;SDS011;35569;48.402;10.670;2023-03-20T03:09:21;0.70;;;0.70;;
10489;SDS011;35569;48.402;10.670;2023-03-20T03:09:56;1.00;;;1.00;;
10489;SDS011;35569;48.402;10.670;2023-03-20T03:10:34;0.73;;;0.73;;
10489;SDS011;35569;48.402;10.670;2023-03-20T03:11:08;0.70;;;0.70;;
10489;SDS011;35569;48.402;10.670;2023-03-20T03:11:42;0.80;;;0.80;;
10489;SDS011;35569;48.402;10.670;2023-03-20T03:12:20;0.80;;;0.80;;
10489;SDS011;35569;48.402;10.670;2023-03-20T03:12:55;0.77;;;0.77;;
10489;SDS011;35569;48.402;10.670;2023-03-20T03:13:29;0.80;;;0.80;;
10489;SDS011;35569;48.402;10.670;2023-03-20T03:14:06;0.90;;;0.90;;
10489;SDS011;35569;48.402;10.670;2023-03-20T03:14:42;0.93;;;0.70;;
10489;SDS011;35569;48.402;10.670;2023-03-20T03:15:19;0.70;;;0.70;;
10489;SDS011;35569;48.402;10.670;2023-03-20T03:15:55;3.37;;;1.10;;
10489;SDS011;35569;48.402;10.670;2023-03-20T03:16:34;1.03;;;0.93;;
10489;SDS011;35569;48.402;10.670;2023-03-20T03:17:08;0.80;;;0.80;;
10489;SDS011;35569;48.402;10.670;2023-03-20T03:17:43;0.87;;;0.87;;
10489;SDS011;35569;48.402;10.670;2023-03-20T03:18:17;0.70;;;0.70;;
10489;SDS011;35569;48.402;10.670;2023-03-20T03:18:53;0.70;;;0.70;;
10489;SDS011;35569;48.402;10.670;2023-03-20T03:19:34;0.60;;;0.60;;
10489;SDS011;35569;48.402;10.670;2023-03-20T03:20:13;0.80;;;0.80;;
10489;SDS011;35569;48.402;10.670;2023-03-20T03:20:54;0.70;;;0.70;;
10489;SDS011;35569;48.402;10.670;2023-03-20T03:21:28;0.80;;;0.80;;
10489;SDS011;35569;48.402;10.670;2023-03-20T03:22:01;0.80;;;0.80;;
10489;SDS011;35569;48.402;10.670;2023-03-20T03:22:39;0.80;;;0.80;;
10489;SDS011;35569;48.402;10.670;2023-03-20T03:23:14;0.67;;;0.67;;
10489;SDS011;35569;48.402;10.670;2023-03-20T03:23:51;0.90;;;0.90;;
10489;SDS011;35569;48.402;10.670;2023-03-20T03:24:29;0.80;;;0.80;;
10489;SDS011;35569;48.402;10.670;2023-03-20T03:25:13;0.80;;;0.80;;
10489;SDS011;35569;48.402;10.670;2023-03-20T03:25:46;0.60;;;0.60;;
10489;SDS011;35569;48.402;10.670;2023-03-20T03:26:23;0.90;;;0.70;;
10489;SDS011;35569;48.402;10.670;2023-03-20T03:27:00;1.00;;;1.00;;
10489;SDS011;35569;48.402;10.670;2023-03-20T03:27:38;0.77;;;0.77;;
10489;SDS011;35569;48.402;10.670;2023-03-20T03:28:14;0.60;;;0.60;;
10489;SDS011;35569;48.402;10.670;2023-03-20T03:28:54;0.80;;;0.80;;
10489;SDS011;35569;48.402;10.670;2023-03-20T03:29:30;0.70;;;0.70;;
10489;SDS011;35569;48.402;10.670;2023-03-20T03:30:05;0.70;;;0.70;;
10489;SDS011;35569;48.402;10.670;2023-03-20T03:30:42;0.60;;;0.60;;
10489;SDS011;35569;48.402;10.670;2023-03-20T03:31:18;0.93;;;0.77;;
10489;SDS011;35569;48.402;10.670;2023-03-20T03:31:50;0.60;;;0.60;;
10489;SDS011;35569;48.402;10.670;2023-03-20T03:32:25;0.70;;;0.70;;
10489;SDS011;35569;48.402;10.670;2023-03-20T03:33:07;0.80;;;0.80;;
10489;SDS011;35569;48.402;10.670;2023-03-20T03:33:44;0.90;;;0.90;;
10489;SDS011;35569;48.402;10.670;2023-03-20T03:34:19;0.70;;;0.70;;
10489;SDS011;35569;48.402;10.670;2023-03-20T03:34:57;0.70;;;0.70;;
10489;SDS011;35569;48.402;10.670;2023-03-20T03:35:30;0.73;;;0.73;;
10489;SDS011;35569;48.402;10.670;2023-03-20T03:36:05;0.80;;;0.80;;
10489;SDS011;35569;48.402;10.670;2023-03-20T03:36:46;1.90;;;0.80;;
10489;SDS011;35569;48.402;10.670;2023-03-20T03:37:30;0.77;;;0.77;;
10489;SDS011;35569;48.402;10.670;2023-03-20T03:38:17;0.83;;;0.83;;
10489;SDS011;35569;48.402;10.670;2023-03-20T03:39:03;2.10;;;0.70;;
10489;SDS011;35569;48.402;10.670;2023-03-20T03:39:40;0.63;;;0.63;;
10489;SDS011;35569;48.402;10.670;2023-03-20T03:40:19;0.60;;;0.60;;
10489;SDS011;35569;48.402;10.670;2023-03-20T03:40:55;0.67;;;0.67;;
10489;SDS011;35569;48.402;10.670;2023-03-20T03:41:34;0.90;;;0.90;;
10489;SDS011;35569;48.402;10.670;2023-03-20T03:42:13;0.70;;;0.70;;
10489;SDS011;35569;48.402;10.670;2023-03-20T03:42:51;0.70;;;0.70;;
10489;SDS011;35569;48.402;10.670;2023-03-20T03:43:30;0.90;;;0.90;;
10489;SDS011;35569;48.402;10.670;2023-03-20T03:44:05;1.00;;;0.97;;
10489;SDS011;35569;48.402;10.670;2023-03-20T03:44:41;0.60;;;0.60;;
10489;SDS011;35569;48.402;10.670;2023-03-20T03:45:22;1.03;;;1.03;;
10489;SDS011;35569;48.402;10.670;2023-03-20T03:45:57;0.90;;;0.90;;
10489;SDS011;35569;48.402;10.670;2023-03-20T03:46:35;0.83;;;0.83;;
10489;SDS011;35569;48.402;10.670;2023-03-20T03:47:15;0.70;;;0.70;;
10489;SDS011;35569;48.402;10.670;2023-03-20T03:47:52;1.00;;;1.00;;
10489;SDS011;35569;48.402;10.670;2023-03-20T03:48:26;0.80;;;0.80;;
10489;SDS011;35569;48.402;10.670;2023-03-20T03:49:04;0.70;;;0.70;;
10489;SDS011;35569;48.402;10.670;2023-03-20T03:49:39;0.90;;;0.90;;
10489;SDS011;35569;48.402;10.670;2023-03-20T03:50:15;0.83;;;0.83;;